Time;durP1;ratioP1;P1;durP2;ratioP2;P2;SDS_P1;SDS_P2;PMS_P1;PMS_P2;Temp;Humidity;BMP_temperature;BMP_pressure;BME280_temperature;BME280_humidity;BME280_pressure;Samples;Min_cycle;Max_cycle;Signal;HPM_P1;HPM_P2
2022/03/27 00:01:10;;;;;;;;;;;;;;;24.76;62.27;97846.66;578544;245;67237;-70
2022/03/27 00:03:37;;;;;;;;;;;;;;;24.77;61.89;97836.71;578554;243;66720;-69
2022/03/27 00:06:05;;;;;;;;;;;;;;;24.77;61.35;97839.40;578560;245;65374;-69
2022/03/27 00:08:33;;;;;;;;;;;;;;;24.77;61.74;97832.16;578538;245;67493;-69
2022/03/27 00:13:46;;;;;;;;;;;;;;;24.74;62.67;97832.69;578539;245;65191;-70
2022/03/27 00:16:14;;;;;;;;;;;;;;;24.74;62.36;97816.56;578516;245;64898;-69
2022/03/27 00:18:42;;;;;;;;;;;;;;;24.74;61.30;97823.83;578295;244;67014;-69
2022/03/27 00:21:09;;;;;;;;;;;;;;;24.77;61.99;97825.95;575725;246;65354;-69
2022/03/27 00:23:37;;;;;;;;;;;;;;;24.74;61.92;97821.94;575707;246;67323;-69
2022/03/27 00:26:05;;;;;;;;;;;;;;;24.74;61.56;97819.25;575730;246;64816;-69
2022/03/27 00:28:33;;;;;;;;;;;;;;;24.74;60.88;97815.77;575758;245;63001;-69
2022/03/27 00:31:04;;;;;;;;;;;;;;;24.71;62.34;97819.80;575755;244;45968;-72
2022/03/27 00:33:33;;;;;;;;;;;;;;;24.73;62.71;97811.48;575727;246;64926;-71
2022/03/27 00:36:01;;;;;;;;;;;;;;;24.69;63.04;97803.17;575656;246;65371;-71
2022/03/27 00:38:29;;;;;;;;;;;;;;;24.70;62.57;97806.66;575725;246;67517;-71
2022/03/27 00:40:57;;;;;;;;;;;;;;;24.69;62.32;97802.34;575711;246;64770;-71
2022/03/27 00:43:25;;;;;;;;;;;;;;;24.70;62.21;97796.70;575711;246;65568;-69
2022/03/27 00:45:52;;;;;;;;;;;;;;;24.69;62.04;97803.17;575726;246;64831;-69
2022/03/27 00:48:21;;;;;;;;;;;;;;;24.68;62.12;97795.38;575709;246;65008;-69
2022/03/27 00:50:49;;;;;;;;;;;;;;;24.68;62.12;97798.86;575722;246;63049;-69
2022/03/27 00:53:17;;;;;;;;;;;;;;;24.68;61.73;97798.06;575758;246;67121;-69
2022/03/27 00:55:48;;;;;;;;;;;;;;;24.67;62.50;97799.15;575686;246;66934;-69
2022/03/27 00:58:21;;;;;;;;;;;;;;;24.66;61.50;97794.83;575718;246;65245;-70
2022/03/27 01:00:49;;;;;;;;;;;;;;;24.66;62.30;97792.95;575595;246;67296;-70
2022/03/27 01:03:20;;;;;;;;;;;;;;;24.64;62.47;97797.81;575581;244;65855;-69
2022/03/27 01:05:49;;;;;;;;;;;;;;;24.64;61.96;97799.70;575706;246;65553;-70
2022/03/27 01:09:35;;;;;;;;;;;;;;;24.64;62.96;97788.95;575734;246;65120;-70
2022/03/27 01:10:47;;;;;;;;;;;;;;;24.62;63.17;97796.48;574937;246;64833;-70
2022/03/27 01:13:19;;;;;;;;;;;;;;;24.62;62.83;97791.11;575729;246;65494;-72
2022/03/27 01:15:54;;;;;;;;;;;;;;;24.62;62.39;97788.42;575700;244;64974;-71
2022/03/27 01:18:22;;;;;;;;;;;;;;;24.62;62.48;97789.22;575731;245;66799;-71
2022/03/27 01:20:49;;;;;;;;;;;;;;;24.61;61.09;97794.85;575688;244;63101;-69
2022/03/27 01:23:17;;;;;;;;;;;;;;;24.62;61.66;97791.11;575754;246;64971;-69
2022/03/27 01:25:45;;;;;;;;;;;;;;;24.58;62.30;97780.91;575696;246;65132;-69
2022/03/27 01:28:14;;;;;;;;;;;;;;;24.61;61.67;97784.11;575708;246;65153;-69
2022/03/27 01:30:42;;;;;;;;;;;;;;;24.58;63.37;97786.28;575721;246;64593;-69
2022/03/27 01:33:09;;;;;;;;;;;;;;;24.56;63.29;97780.38;575714;246;64666;-69
2022/03/27 01:35:38;;;;;;;;;;;;;;;24.57;62.94;97783.86;575705;246;65359;-69
2022/03/27 01:38:05;;;;;;;;;;;;;;;24.55;63.59;97789.53;575714;246;67239;-69
2022/03/27 01:40:33;;;;;;;;;;;;;;;24.56;63.61;97784.95;575718;246;66731;-69
2022/03/27 01:43:01;;;;;;;;;;;;;;;24.55;62.73;97786.84;575733;246;64082;-69
2022/03/27 01:45:28;;;;;;;;;;;;;;;24.55;63.21;97781.47;575717;246;64872;-69
2022/03/27 01:47:56;;;;;;;;;;;;;;;24.52;62.85;97792.73;575726;246;64869;-69
2022/03/27 01:50:23;;;;;;;;;;;;;;;24.54;63.05;97782.53;575679;246;63160;-69
2022/03/27 01:52:51;;;;;;;;;;;;;;;24.52;63.18;97781.98;575709;246;67411;-69
2022/03/27 01:55:18;;;;;;;;;;;;;;;24.52;62.59;97781.98;575684;246;66915;-71
2022/03/27 01:57:45;;;;;;;;;;;;;;;24.52;63.30;97781.98;575711;246;65169;-71
2022/03/27 02:00:14;;;;;;;;;;;;;;;24.50;63.10;97784.17;575734;244;67143;-71
2022/03/27 02:02:41;;;;;;;;;;;;;;;24.49;63.51;97779.06;575693;244;66840;-71
2022/03/27 02:05:11;;;;;;;;;;;;;;;24.48;63.64;97777.46;575781;244;46973;-69
2022/03/27 02:07:45;;;;;;;;;;;;;;;24.47;63.76;97776.66;575721;246;67131;-69
2022/03/27 02:10:09;;;;;;;;;;;;;;;24.47;64.30;97773.98;575607;246;67097;-69
2022/03/27 02:12:37;;;;;;;;;;;;;;;24.47;63.67;97776.66;575701;244;63218;-69
2022/03/27 02:15:05;;;;;;;;;;;;;;;24.46;63.33;97766.98;575692;246;64940;-69
2022/03/27 02:17:34;;;;;;;;;;;;;;;24.46;64.21;97777.72;575721;246;64920;-69
2022/03/27 02:20:02;;;;;;;;;;;;;;;24.45;64.85;97769.95;577361;244;64272;-69
2022/03/27 02:22:29;;;;;;;;;;;;;;;24.44;63.83;97769.13;578523;245;64928;-69
2022/03/27 02:24:57;;;;;;;;;;;;;;;24.44;63.99;97763.75;578527;245;64844;-69
2022/03/27 02:27:24;;;;;;;;;;;;;;;24.43;63.58;97767.50;578530;245;63009;-69
2022/03/27 02:29:51;;;;;;;;;;;;;;;24.43;64.54;97764.02;578510;244;64883;-69
2022/03/27 02:32:19;;;;;;;;;;;;;;;24.41;64.40;97761.59;578531;245;66445;-69
2022/03/27 02:34:47;;;;;;;;;;;;;;;24.41;64.86;97768.85;578490;243;63020;-69
2022/03/27 02:37:14;;;;;;;;;;;;;;;24.38;64.43;97765.63;578515;245;64926;-69
2022/03/27 02:39:44;;;;;;;;;;;;;;;24.39;64.39;97763.77;578483;243;65207;-69
2022/03/27 02:42:11;;;;;;;;;;;;;;;24.40;65.32;97767.26;578510;245;65176;-68
2022/03/27 02:44:39;;;;;;;;;;;;;;;24.38;64.47;97767.52;578511;245;67137;-69
2022/03/27 02:47:07;;;;;;;;;;;;;;;24.38;65.94;97759.45;578504;245;67033;-69
2022/03/27 02:49:34;;;;;;;;;;;;;;;24.38;65.37;97770.20;578510;243;65680;-70
2022/03/27 02:52:02;;;;;;;;;;;;;;;24.36;65.45;97766.98;578566;245;64992;-70
2022/03/27 02:54:30;;;;;;;;;;;;;;;24.35;65.51;97768.87;578572;245;64733;-70
2022/03/27 02:56:57;;;;;;;;;;;;;;;24.35;64.60;97768.87;578579;245;63196;-68
2022/03/27 02:59:25;;;;;;;;;;;;;;;24.35;64.40;97776.13;578567;245;65279;-68
2022/03/27 03:01:52;;;;;;;;;;;;;;;24.35;64.91;97776.93;578539;245;66795;-68
2022/03/27 03:04:20;;;;;;;;;;;;;;;24.34;64.50;97777.22;578536;245;65383;-68
2022/03/27 03:06:48;;;;;;;;;;;;;;;24.35;65.48;97773.44;578577;245;67166;-68
2022/03/27 03:09:16;;;;;;;;;;;;;;;24.32;65.44;97769.42;578589;245;64834;-68
2022/03/27 03:11:44;;;;;;;;;;;;;;;24.33;65.34;97778.28;578542;245;63221;-69
2022/03/27 03:14:12;;;;;;;;;;;;;;;24.30;64.23;97771.57;578556;245;67228;-69
2022/03/27 03:16:40;;;;;;;;;;;;;;;24.30;64.30;97773.45;578563;245;66677;-69
2022/03/27 03:19:07;;;;;;;;;;;;;;;24.31;64.71;97772.40;577862;243;65474;-70
2022/03/27 03:21:35;;;;;;;;;;;;;;;24.30;64.80;97779.62;575770;246;67296;-70
2022/03/27 03:24:02;;;;;;;;;;;;;;;24.30;64.54;97779.62;575732;246;66834;-70
2022/03/27 03:26:30;;;;;;;;;;;;;;;24.30;65.40;97781.52;575734;246;65486;-70
2022/03/27 03:28:58;;;;;;;;;;;;;;;24.29;65.63;97782.61;575680;246;67835;-70
2022/03/27 03:31:25;;;;;;;;;;;;;;;24.28;65.11;97789.03;575733;246;65033;-70
2022/03/27 03:33:53;;;;;;;;;;;;;;;24.27;65.73;97790.92;575732;244;64132;-70
2022/03/27 03:36:20;;;;;;;;;;;;;;;24.28;65.36;97786.35;575717;246;64695;-70
2022/03/27 03:38:48;;;;;;;;;;;;;;;24.26;65.03;97793.90;575732;244;64995;-70
2022/03/27 03:41:17;;;;;;;;;;;;;;;24.27;65.16;97792.81;575733;246;63139;-70
2022/03/27 03:43:46;;;;;;;;;;;;;;;24.25;65.17;97795.76;575709;246;64537;-70
2022/03/27 03:46:13;;;;;;;;;;;;;;;24.26;65.11;97799.27;575734;246;66806;-70
2022/03/27 03:48:41;;;;;;;;;;;;;;;24.24;65.12;97798.73;575733;246;65423;-68
2022/03/27 03:51:08;;;;;;;;;;;;;;;24.24;66.13;97798.73;575733;246;67112;-68
2022/03/27 03:53:38;;;;;;;;;;;;;;;24.23;64.46;97797.94;575766;244;47184;-68
2022/03/27 03:56:05;;;;;;;;;;;;;;;24.23;64.70;97805.19;575700;244;65410;-68
2022/03/27 03:58:33;;;;;;;;;;;;;;;24.23;65.05;97797.14;575723;246;67104;-68
2022/03/27 04:01:00;;;;;;;;;;;;;;;24.21;65.39;97797.39;575704;246;66886;-68
2022/03/27 04:03:29;;;;;;;;;;;;;;;24.20;64.51;97794.97;575737;246;65195;-68
2022/03/27 04:05:57;;;;;;;;;;;;;;;24.20;64.69;97801.17;575739;246;64930;-68
2022/03/27 04:08:24;;;;;;;;;;;;;;;24.19;65.05;97804.91;575685;246;67159;-68
2022/03/27 04:10:52;;;;;;;;;;;;;;;24.19;64.97;97804.11;575720;246;65259;-68
2022/03/27 04:13:19;;;;;;;;;;;;;;;24.17;64.10;97801.69;575737;246;66828;-68
2022/03/27 04:15:47;;;;;;;;;;;;;;;24.17;64.72;97803.58;575717;244;66962;-70
2022/03/27 04:18:14;;;;;;;;;;;;;;;24.15;64.77;97810.03;575702;246;63956;-70
2022/03/27 04:20:43;;;;;;;;;;;;;;;24.15;65.51;97807.34;578213;245;65209;-70
2022/03/27 04:23:11;;;;;;;;;;;;;;;24.15;65.45;97810.03;578510;245;66886;-68
2022/03/27 04:25:39;;;;;;;;;;;;;;;24.15;64.72;97812.72;578538;245;65422;-70
2022/03/27 04:28:07;;;;;;;;;;;;;;;24.14;64.92;97821.86;578509;245;65056;-70
2022/03/27 04:30:37;;;;;;;;;;;;;;;24.13;65.22;97817.55;578539;245;65823;-70
2022/03/27 04:33:05;;;;;;;;;;;;;;;24.13;65.37;97819.44;578536;245;66345;-70
2022/03/27 04:35:34;;;;;;;;;;;;;;;24.13;64.54;97825.61;578529;243;64993;-70
2022/03/27 04:38:02;;;;;;;;;;;;;;;24.12;65.61;97826.70;578522;245;67206;-70
2022/03/27 04:40:29;;;;;;;;;;;;;;;24.11;64.56;97827.75;578534;245;65418;-70
2022/03/27 04:42:57;;;;;;;;;;;;;;;24.11;65.35;97833.12;578497;245;67126;-70
2022/03/27 04:45:25;;;;;;;;;;;;;;;24.10;65.31;97839.58;578547;245;65674;-68
2022/03/27 04:47:52;;;;;;;;;;;;;;;24.10;66.07;97839.58;578519;245;63173;-68
2022/03/27 04:50:20;;;;;;;;;;;;;;;24.09;65.77;97840.66;578523;245;66870;-70
2022/03/27 04:52:47;;;;;;;;;;;;;;;24.09;65.27;97839.84;578536;243;66920;-70
2022/03/27 04:55:15;;;;;;;;;;;;;;;24.08;65.21;97836.35;578533;243;64993;-68
2022/03/27 04:57:43;;;;;;;;;;;;;;;24.07;66.59;97840.12;578513;243;67260;-68
2022/03/27 05:00:17;;;;;;;;;;;;;;;24.07;66.39;97837.44;578544;245;66970;-68
2022/03/27 05:02:42;;;;;;;;;;;;;;;24.05;65.21;97836.90;578361;245;65377;-70
2022/03/27 05:05:11;;;;;;;;;;;;;;;24.06;64.21;97837.70;578515;245;64894;-70
2022/03/27 05:07:39;;;;;;;;;;;;;;;24.06;65.47;97837.70;578510;245;65199;-70
2022/03/27 05:10:08;;;;;;;;;;;;;;;24.05;64.70;97836.09;578535;245;63036;-69
2022/03/27 05:12:35;;;;;;;;;;;;;;;24.03;65.51;97836.36;578495;245;67169;-69
2022/03/27 05:15:03;;;;;;;;;;;;;;;24.04;66.23;97846.04;578510;245;66900;-69
2022/03/27 05:17:31;;;;;;;;;;;;;;;24.03;65.40;97843.61;578513;245;65196;-69
2022/03/27 05:19:58;;;;;;;;;;;;;;;24.02;66.52;97848.19;576732;245;67161;-69
2022/03/27 05:22:26;;;;;;;;;;;;;;;24.02;65.96;97848.19;575725;246;66899;-69
2022/03/27 05:24:53;;;;;;;;;;;;;;;24.01;65.91;97851.95;575660;246;65547;-69
2022/03/27 05:27:21;;;;;;;;;;;;;;;24.00;65.53;97850.33;575265;246;66856;-69
2022/03/27 05:29:48;;;;;;;;;;;;;;;24.00;65.75;97844.95;575660;246;66927;-69
2022/03/27 05:32:16;;;;;;;;;;;;;;;24.00;66.34;97852.21;575702;246;65380;-69
2022/03/27 05:34:43;;;;;;;;;;;;;;;24.00;66.63;97855.70;575629;244;67334;-70
2022/03/27 05:37:13;;;;;;;;;;;;;;;24.00;66.18;97854.89;575004;246;64846;-70
2022/03/27 05:39:41;;;;;;;;;;;;;;;23.99;66.04;97851.41;575674;246;65304;-70
2022/03/27 05:42:09;;;;;;;;;;;;;;;23.99;66.52;97859.47;575687;245;67186;-70
2022/03/27 05:44:36;;;;;;;;;;;;;;;24.00;67.42;97861.06;575722;246;66889;-70
2022/03/27 05:47:05;;;;;;;;;;;;;;;23.99;66.27;97864.84;575794;244;42880;-70
2022/03/27 05:49:33;;;;;;;;;;;;;;;23.99;67.87;97869.41;575717;246;64905;-70
2022/03/27 05:52:00;;;;;;;;;;;;;;;23.98;66.04;97860.55;575718;244;64898;-70
2022/03/27 05:54:28;;;;;;;;;;;;;;;23.98;66.25;97871.30;575693;246;65347;-70
2022/03/27 05:56:55;;;;;;;;;;;;;;;23.98;67.00;97868.61;575691;246;67132;-70
2022/03/27 05:59:23;;;;;;;;;;;;;;;23.98;65.97;97867.78;575709;246;66925;-70
2022/03/27 06:01:50;;;;;;;;;;;;;;;23.97;66.79;97871.55;575686;244;65464;-70
2022/03/27 06:04:19;;;;;;;;;;;;;;;23.96;66.75;97870.75;575727;246;67086;-70
2022/03/27 06:06:46;;;;;;;;;;;;;;;23.96;67.36;97865.38;575722;246;66951;-70
2022/03/27 06:09:14;;;;;;;;;;;;;;;23.96;67.04;97869.95;575688;246;65473;-70
2022/03/27 06:11:41;;;;;;;;;;;;;;;23.97;67.17;97863.49;575701;246;67065;-70
2022/03/27 06:14:10;;;;;;;;;;;;;;;23.94;66.11;97867.52;575759;246;66671;-70
2022/03/27 06:16:38;;;;;;;;;;;;;;;23.95;67.66;97852.21;575686;245;66386;-70
2022/03/27 06:19:05;;;;;;;;;;;;;;;23.95;67.74;97849.53;576301;245;67114;-70
2022/03/27 06:21:34;;;;;;;;;;;;;;;23.93;68.15;97861.35;578507;245;67200;-70
2022/03/27 06:24:01;;;;;;;;;;;;;;;23.92;67.74;97862.41;578483;243;66389;-70
2022/03/27 06:26:29;;;;;;;;;;;;;;;23.92;66.33;97872.34;578558;245;67094;-71
2022/03/27 06:28:56;;;;;;;;;;;;;;;23.92;67.27;97857.04;578538;245;67061;-71
2022/03/27 06:31:24;;;;;;;;;;;;;;;23.92;66.71;97864.30;578536;243;65470;-71
2022/03/27 06:33:51;;;;;;;;;;;;;;;23.91;67.43;97851.95;578532;245;65000;-70
2022/03/27 06:36:19;;;;;;;;;;;;;;;23.91;67.04;97854.64;578533;243;64861;-70
2022/03/27 06:38:46;;;;;;;;;;;;;;;23.91;67.40;97870.75;578555;243;63028;-70
2022/03/27 06:41:15;;;;;;;;;;;;;;;23.89;66.94;97857.58;578531;245;66869;-71
2022/03/27 06:43:43;;;;;;;;;;;;;;;23.91;67.36;97868.06;578568;245;66953;-71
2022/03/27 06:46:15;;;;;;;;;;;;;;;23.89;68.31;97859.47;578515;245;66217;-71
2022/03/27 06:48:39;;;;;;;;;;;;;;;23.88;67.64;97852.50;578432;245;65143;-70
2022/03/27 06:51:13;;;;;;;;;;;;;;;23.88;67.74;97852.50;578593;243;47180;-70
2022/03/27 06:53:42;;;;;;;;;;;;;;;23.88;67.05;97866.72;578545;243;65210;-69
2022/03/27 06:56:09;;;;;;;;;;;;;;;23.86;68.12;97847.39;578537;245;64911;-69
2022/03/27 06:58:38;;;;;;;;;;;;;;;23.85;66.59;97853.84;578548;245;68210;-69
2022/03/27 07:03:51;;;;;;;;;;;;;;;23.86;68.23;97857.33;578579;245;66825;-68
2022/03/27 07:06:19;;;;;;;;;;;;;;;23.86;67.78;97863.49;578551;245;66718;-69
2022/03/27 07:08:47;;;;;;;;;;;;;;;23.85;68.04;97861.89;578568;245;65639;-69
2022/03/27 07:11:17;;;;;;;;;;;;;;;23.85;67.82;97859.20;578531;245;64360;-68
2022/03/27 07:13:46;;;;;;;;;;;;;;;23.84;67.83;97856.78;578581;244;54070;-70
2022/03/27 07:16:14;;;;;;;;;;;;;;;23.85;67.21;97863.78;578571;245;65365;-68
2022/03/27 07:18:49;;;;;;;;;;;;;;;23.84;68.19;97862.95;578323;245;64576;-68
2022/03/27 07:21:13;;;;;;;;;;;;;;;23.84;67.79;97857.58;575631;246;66995;-68
2022/03/27 07:23:40;;;;;;;;;;;;;;;23.86;68.50;97868.86;575749;246;63161;-68
2022/03/27 07:26:09;;;;;;;;;;;;;;;23.85;67.84;97866.47;575707;246;64401;-68
2022/03/27 07:28:36;;;;;;;;;;;;;;;23.84;67.96;97860.27;575734;244;66697;-69
2022/03/27 07:31:04;;;;;;;;;;;;;;;23.84;67.46;97878.25;575700;244;65381;-69
2022/03/27 07:33:31;;;;;;;;;;;;;;;23.84;68.50;97868.31;575700;246;67161;-69
2022/03/27 07:35:59;;;;;;;;;;;;;;;23.85;68.30;97869.95;575693;244;67533;-69
2022/03/27 07:38:27;;;;;;;;;;;;;;;23.84;68.18;97868.31;575723;246;65454;-69
2022/03/27 07:40:55;;;;;;;;;;;;;;;23.86;68.58;97846.59;575685;244;67436;-69
2022/03/27 07:43:23;;;;;;;;;;;;;;;23.85;67.51;97858.41;575711;244;64546;-69
2022/03/27 07:45:50;;;;;;;;;;;;;;;23.84;67.69;97846.05;575734;246;63348;-69
2022/03/27 07:48:18;;;;;;;;;;;;;;;23.86;69.08;97854.64;575751;246;64912;-69
2022/03/27 07:50:49;;;;;;;;;;;;;;;23.83;68.03;97855.18;575696;246;64874;-69
2022/03/27 07:53:14;;;;;;;;;;;;;;;23.84;67.83;97846.84;575638;244;63394;-69
2022/03/27 07:55:43;;;;;;;;;;;;;;;23.83;68.20;97858.66;575716;246;67753;-69
2022/03/27 07:58:11;;;;;;;;;;;;;;;23.83;67.37;97844.44;575719;246;64868;-70
2022/03/27 08:00:40;;;;;;;;;;;;;;;23.84;67.45;97870.20;575689;246;63056;-69
2022/03/27 08:03:08;;;;;;;;;;;;;;;23.82;68.40;97862.44;575738;246;65097;-69
2022/03/27 08:05:36;;;;;;;;;;;;;;;23.82;68.23;97858.95;570398;246;70297;-69
2022/03/27 08:08:05;;;;;;;;;;;;;;;23.82;67.75;97864.31;575758;246;45290;-69
2022/03/27 08:10:37;;;;;;;;;;;;;;;23.82;67.95;97859.75;575707;244;48313;-68
2022/03/27 08:13:05;;;;;;;;;;;;;;;23.81;67.79;97850.06;575707;244;66882;-70
2022/03/27 08:15:33;;;;;;;;;;;;;;;23.81;68.03;97868.86;575697;246;63007;-69
2022/03/27 08:18:00;;;;;;;;;;;;;;;23.81;68.48;97865.38;575748;246;65053;-69
2022/03/27 08:20:29;;;;;;;;;;;;;;;23.80;68.92;97863.77;575649;244;66953;-69
2022/03/27 08:22:57;;;;;;;;;;;;;;;23.80;67.55;97861.89;575736;242;65181;-70
2022/03/27 08:28:14;;;;;;;;;;;;;;;23.79;67.69;97854.92;575724;246;65665;-70
2022/03/27 08:30:41;;;;;;;;;;;;;;;23.80;68.33;97850.35;575715;244;65238;-69
2022/03/27 08:33:09;;;;;;;;;;;;;;;23.80;67.92;97855.72;575681;244;64633;-69
2022/03/27 08:35:41;;;;;;;;;;;;;;;23.80;68.39;97859.20;575729;244;66946;-69
2022/03/27 08:38:07;;;;;;;;;;;;;;;23.79;68.49;97857.61;575627;246;65421;-69
2022/03/27 08:40:38;;;;;;;;;;;;;;;23.78;68.80;97849.81;575651;246;73070;-68
2022/03/27 08:43:12;;;;;;;;;;;;;;;23.77;68.23;97851.70;575744;244;66733;-68
2022/03/27 08:45:40;;;;;;;;;;;;;;;23.76;68.72;97839.33;575695;246;63248;-68
2022/03/27 08:48:08;;;;;;;;;;;;;;;23.78;68.80;97836.39;575722;246;67323;-68
2022/03/27 08:50:52;;;;;;;;;;;;;;;23.77;68.46;97856.27;575715;246;67321;-69
2022/03/27 08:53:21;;;;;;;;;;;;;;;23.76;68.66;97849.27;575721;246;65153;-70
2022/03/27 08:55:51;;;;;;;;;;;;;;;23.75;67.67;97835.05;575386;246;64622;-69
2022/03/27 08:58:20;;;;;;;;;;;;;;;23.76;68.52;97828.59;575578;246;66948;-69
2022/03/27 09:00:49;;;;;;;;;;;;;;;23.75;68.25;97835.05;575695;246;65422;-69
2022/03/27 09:03:16;;;;;;;;;;;;;;;23.74;68.58;97830.77;575729;246;64895;-69
2022/03/27 09:05:45;;;;;;;;;;;;;;;23.74;69.09;97835.34;575717;246;64843;-69
2022/03/27 09:08:13;;;;;;;;;;;;;;;23.74;68.49;97828.08;575738;246;62660;-69
2022/03/27 09:10:41;;;;;;;;;;;;;;;23.73;68.63;97839.88;575674;246;66765;-70
2022/03/27 09:13:12;;;;;;;;;;;;;;;23.73;67.86;97833.70;575684;246;66908;-69
2022/03/27 09:15:41;;;;;;;;;;;;;;;23.73;68.75;97813.03;575699;246;63054;-69
2022/03/27 09:18:09;;;;;;;;;;;;;;;23.73;68.92;97821.08;575704;244;67508;-69
2022/03/27 09:20:44;;;;;;;;;;;;;;;23.72;67.87;97822.17;578072;243;64719;-69
2022/03/27 09:23:13;;;;;;;;;;;;;;;23.73;68.09;97822.97;578493;243;65444;-69
2022/03/27 09:25:45;;;;;;;;;;;;;;;23.74;68.64;97813.86;578502;245;67255;-69
2022/03/27 09:28:12;;;;;;;;;;;;;;;23.73;69.21;97834.50;578364;245;66990;-69
2022/03/27 09:30:40;;;;;;;;;;;;;;;23.72;68.33;97826.73;578530;245;63932;-69
2022/03/27 09:33:07;;;;;;;;;;;;;;;23.70;68.19;97819.71;578536;245;67053;-68
2022/03/27 09:35:36;;;;;;;;;;;;;;;23.72;68.57;97816.00;578504;245;67139;-70
2022/03/27 09:38:05;;;;;;;;;;;;;;;23.70;68.40;97818.91;578516;245;65415;-70
2022/03/27 09:40:35;;;;;;;;;;;;;;;23.70;68.17;97821.59;578199;245;67155;-70
2022/03/27 09:43:10;;;;;;;;;;;;;;;23.69;68.22;97806.58;578516;245;66939;-70
2022/03/27 09:45:40;;;;;;;;;;;;;;;23.70;68.88;97814.34;578587;245;47408;-69
2022/03/27 09:48:08;;;;;;;;;;;;;;;23.68;68.77;97800.41;578511;245;67137;-69
2022/03/27 09:50:40;;;;;;;;;;;;;;;23.69;68.98;97811.95;578521;245;67114;-69
2022/03/27 09:53:25;;;;;;;;;;;;;;;23.68;69.49;97805.78;578529;245;65228;-68
2022/03/27 09:56:01;;;;;;;;;;;;;;;23.67;69.32;97803.35;578545;245;64954;-69
2022/03/27 09:58:42;;;;;;;;;;;;;;;23.66;68.23;97794.50;578524;245;67683;-68
2022/03/27 10:01:17;;;;;;;;;;;;;;;23.66;69.09;97797.19;578500;245;65472;-69
2022/03/27 10:03:57;;;;;;;;;;;;;;;23.66;68.76;97785.66;578516;245;64946;-68
2022/03/27 10:06:33;;;;;;;;;;;;;;;23.64;68.47;97796.64;578501;245;67381;-68
2022/03/27 10:09:01;;;;;;;;;;;;;;;23.64;68.83;97777.86;578493;245;65359;-68
2022/03/27 10:11:29;;;;;;;;;;;;;;;23.65;67.99;97784.02;578508;245;67142;-69
2022/03/27 10:13:58;;;;;;;;;;;;;;;23.65;69.35;97790.22;578483;243;67331;-69
2022/03/27 10:16:30;;;;;;;;;;;;;;;23.63;68.66;97781.63;578513;243;65277;-69
2022/03/27 10:18:59;;;;;;;;;;;;;;;23.64;69.54;97790.48;578014;245;68186;-69
2022/03/27 10:21:27;;;;;;;;;;;;;;;23.62;69.14;97793.42;575628;246;66872;-68
2022/03/27 10:24:09;;;;;;;;;;;;;;;23.61;68.39;97791.81;575744;246;63090;-68
2022/03/27 10:26:37;;;;;;;;;;;;;;;23.59;68.88;97785.91;575696;246;64761;-68
2022/03/27 10:29:06;;;;;;;;;;;;;;;23.61;69.34;97788.34;575710;246;67180;-68
2022/03/27 10:31:33;;;;;;;;;;;;;;;23.61;69.28;97788.34;575668;244;65345;-68
2022/03/27 10:34:02;;;;;;;;;;;;;;;23.60;68.69;97798.27;575696;244;67531;-68
2022/03/27 10:36:44;;;;;;;;;;;;;;;23.61;69.22;97807.92;575688;246;66916;-68
2022/03/27 10:39:25;;;;;;;;;;;;;;;23.59;69.00;97796.64;575707;246;63077;-69
2022/03/27 10:42:12;;;;;;;;;;;;;;;23.59;68.84;97790.48;575679;246;67095;-69
2022/03/27 10:44:42;;;;;;;;;;;;;;;23.59;68.81;97790.48;575731;244;64851;-68
2022/03/27 10:47:21;;;;;;;;;;;;;;;23.59;68.38;97790.48;575708;246;65382;-68
2022/03/27 10:50:05;;;;;;;;;;;;;;;23.58;68.42;97796.92;575708;246;67361;-69
2022/03/27 10:52:36;;;;;;;;;;;;;;;23.55;68.33;97790.22;575697;246;66929;-69
2022/03/27 10:55:08;;;;;;;;;;;;;;;23.56;68.01;97791.81;575699;246;65713;-69
2022/03/27 10:57:39;;;;;;;;;;;;;;;23.57;68.68;97798.81;575669;246;67511;-69
2022/03/27 11:00:08;;;;;;;;;;;;;;;23.54;67.47;97793.95;575709;246;67067;-69
2022/03/27 11:02:53;;;;;;;;;;;;;;;23.54;66.93;97793.95;575679;245;65268;-69
2022/03/27 11:05:32;;;;;;;;;;;;;;;23.56;68.88;97801.75;575702;246;66139;-68
2022/03/27 11:08:19;;;;;;;;;;;;;;;23.56;69.11;97785.66;575691;246;65037;-68
2022/03/27 11:10:52;;;;;;;;;;;;;;;23.54;68.16;97788.59;575690;246;63308;-68
2022/03/27 11:13:28;;;;;;;;;;;;;;;23.55;69.28;97797.47;575745;244;65154;-68
2022/03/27 11:16:01;;;;;;;;;;;;;;;23.54;68.37;97802.00;575771;246;66415;-68
2022/03/27 11:18:36;;;;;;;;;;;;;;;23.53;69.17;97792.36;575761;246;63301;-70
2022/03/27 11:21:04;;;;;;;;;;;;;;;23.52;68.31;97796.13;575750;246;66977;-68
2022/03/27 11:23:33;;;;;;;;;;;;;;;23.53;69.36;97781.63;575738;246;66946;-69
2022/03/27 11:26:02;;;;;;;;;;;;;;;23.51;69.02;97778.40;575722;246;65363;-69
2022/03/27 11:28:40;;;;;;;;;;;;;;;23.51;68.19;97788.33;575762;246;64838;-69
2022/03/27 11:31:09;;;;;;;;;;;;;;;23.50;68.41;97782.16;573560;246;64440;-69
2022/03/27 11:33:37;;;;;;;;;;;;;;;23.50;68.14;97766.07;575766;244;63069;-69
2022/03/27 11:36:10;;;;;;;;;;;;;;;23.51;67.76;97782.97;575763;246;66804;-69
2022/03/27 11:38:52;;;;;;;;;;;;;;;23.51;68.11;97777.60;575745;246;67479;-69
2022/03/27 11:41:24;;;;;;;;;;;;;;;23.51;68.37;97758.82;575723;246;65409;-69
2022/03/27 11:43:54;;;;;;;;;;;;;;;23.49;68.51;97765.27;575759;246;48243;-69
2022/03/27 11:46:23;;;;;;;;;;;;;;;23.48;68.25;97750.23;575718;246;67059;-69
2022/03/27 11:48:56;;;;;;;;;;;;;;;23.48;68.46;97747.55;575689;246;63374;-69
2022/03/27 11:51:26;;;;;;;;;;;;;;;23.48;69.12;97746.75;575649;244;67418;-69
2022/03/27 11:53:55;;;;;;;;;;;;;;;23.48;68.31;97749.43;575729;246;67020;-69
2022/03/27 11:56:24;;;;;;;;;;;;;;;23.47;68.13;97755.88;575730;246;63015;-69
2022/03/27 11:59:14;;;;;;;;;;;;;;;23.46;68.37;97754.25;575718;246;67045;-69
2022/03/27 12:01:37;;;;;;;;;;;;;;;23.47;69.42;97754.00;575311;244;66379;-69
2022/03/27 12:04:06;;;;;;;;;;;;;;;23.45;68.12;97741.92;575720;246;63024;-69
2022/03/27 12:06:34;;;;;;;;;;;;;;;23.46;68.09;97747.03;575735;246;64940;-69
2022/03/27 12:09:01;;;;;;;;;;;;;;;23.46;68.71;97748.89;575733;246;64856;-69
2022/03/27 12:11:29;;;;;;;;;;;;;;;23.45;68.15;97745.41;575709;246;63127;-69
2022/03/27 12:13:57;;;;;;;;;;;;;;;23.44;68.24;97743.81;575681;246;67253;-69
2022/03/27 12:16:25;;;;;;;;;;;;;;;23.45;68.40;97739.24;575711;246;66898;-69
2022/03/27 12:18:53;;;;;;;;;;;;;;;23.44;69.33;97727.72;576072;245;62939;-69
2022/03/27 12:21:22;;;;;;;;;;;;;;;23.44;68.41;97724.23;578526;243;67176;-69
2022/03/27 12:23:51;;;;;;;;;;;;;;;23.44;68.31;97724.23;578518;245;66888;-69
2022/03/27 12:31:58;;;;;;;;;;;;;;;23.43;68.00;97722.61;578576;245;66548;-69
2022/03/27 12:34:26;;;;;;;;;;;;;;;23.44;69.07;97724.23;578527;245;63120;-69
2022/03/27 12:37:09;;;;;;;;;;;;;;;23.42;68.82;97715.64;578521;243;67109;-69
2022/03/27 12:39:34;;;;;;;;;;;;;;;23.41;68.62;97714.05;578390;245;65164;-68
2022/03/27 12:42:02;;;;;;;;;;;;;;;23.40;68.29;97704.38;578542;243;62966;-69
2022/03/27 12:44:47;;;;;;;;;;;;;;;23.41;68.66;97714.05;571830;245;64920;-69
2022/03/27 12:47:15;;;;;;;;;;;;;;;23.41;68.09;97709.48;578510;245;64727;-69
2022/03/27 12:49:50;;;;;;;;;;;;;;;23.42;69.66;97699.55;578541;245;63372;-70
2022/03/27 12:52:18;;;;;;;;;;;;;;;23.40;68.73;97696.33;578541;245;67242;-68
2022/03/27 12:54:55;;;;;;;;;;;;;;;23.39;68.27;97700.89;578522;243;67094;-70
2022/03/27 12:57:25;;;;;;;;;;;;;;;23.39;68.64;97700.09;578535;245;65503;-70
2022/03/27 12:59:53;;;;;;;;;;;;;;;23.38;68.20;97685.88;577659;245;65906;-69
2022/03/27 13:02:27;;;;;;;;;;;;;;;23.38;68.58;97685.88;578506;243;64899;-69
2022/03/27 13:05:00;;;;;;;;;;;;;;;23.39;69.16;97692.05;578503;245;65198;-69
2022/03/27 13:07:45;;;;;;;;;;;;;;;23.37;68.68;97673.53;578536;245;68020;-69
2022/03/27 13:10:12;;;;;;;;;;;;;;;23.38;69.15;97680.52;578513;245;67102;-69
2022/03/27 13:12:40;;;;;;;;;;;;;;;23.37;68.87;97680.77;578506;245;65347;-69